Time;durP1;ratioP1;P1;durP2;ratioP2;P2;SDS_P1;SDS_P2;PMS_P1;PMS_P2;Temp;Humidity;BMP_temperature;BMP_pressure;BME280_temperature;BME280_humidity;BME280_pressure;Samples;Min_cycle;Max_cycle;Signal;HPM_P1;HPM_P2
2021/06/04 00:01:50;;;;;;;3.80;3.47;;;27.60;63.00;;;;;;5005510;28;20443;-76
2021/06/04 00:04:18;;;;;;;3.50;3.40;;;27.70;62.90;;;;;;5005269;28;20572;-76
2021/06/04 00:06:46;;;;;;;3.80;3.60;;;27.70;62.70;;;;;;5005141;28;20473;-76
2021/06/04 00:09:14;;;;;;;4.23;3.90;;;27.60;62.40;;;;;;5004882;28;20492;-76
2021/06/04 00:11:45;;;;;;;3.83;3.63;;;27.60;62.60;;;;;;5004976;28;20484;-76
2021/06/04 00:14:17;;;;;;;3.70;3.50;;;27.70;62.40;;;;;;5005468;28;20460;-76
2021/06/04 00:16:50;;;;;;;3.70;3.50;;;27.70;62.30;;;;;;5004833;28;20423;-76
2021/06/04 00:19:20;;;;;;;4.80;4.40;;;27.60;62.30;;;;;;5005568;28;20432;-76
2021/06/04 00:21:56;;;;;;;3.60;3.30;;;27.60;62.30;;;;;;5001019;28;20567;-76
2021/06/04 00:24:24;;;;;;;3.97;3.77;;;27.60;62.00;;;;;;5005140;28;20500;-76
2021/06/04 00:26:52;;;;;;;5.90;3.50;;;27.60;62.00;;;;;;5005244;28;20452;-76
2021/06/04 00:29:23;;;;;;;3.93;3.73;;;27.50;62.00;;;;;;5004653;28;20469;-76
2021/06/04 00:31:53;;;;;;;3.60;3.40;;;27.50;62.00;;;;;;5005257;28;20399;-76
2021/06/04 00:34:21;;;;;;;3.57;3.37;;;27.50;61.70;;;;;;5005269;28;20430;-76
2021/06/04 00:36:48;;;;;;;5.37;3.80;;;27.50;61.80;;;;;;5004884;28;20538;-76
2021/06/04 00:39:18;;;;;;;3.97;3.77;;;27.60;61.80;;;;;;5004866;28;20450;-76
2021/06/04 00:41:47;;;;;;;3.90;3.70;;;27.50;61.70;;;;;;5004568;28;20451;-76
2021/06/04 00:44:15;;;;;;;3.57;3.37;;;27.50;61.90;;;;;;5004114;28;20446;-76
2021/06/04 00:46:42;;;;;;;5.43;3.30;;;27.40;61.70;;;;;;5004766;28;20436;-76
2021/06/04 00:49:11;;;;;;;3.60;3.40;;;27.50;61.70;;;;;;5004472;28;20520;-76
2021/06/04 00:51:40;;;;;;;4.20;3.80;;;27.50;61.50;;;;;;5004251;28;20455;-76
2021/06/04 00:54:08;;;;;;;4.20;4.00;;;27.50;61.60;;;;;;5004837;28;20514;-76
2021/06/04 00:56:36;;;;;;;3.67;3.40;;;27.50;61.40;;;;;;5004319;28;20544;-76
2021/06/04 00:59:04;;;;;;;4.00;3.80;;;27.40;61.50;;;;;;5004330;28;20439;-76
2021/06/04 01:01:33;;;;;;;4.13;3.83;;;27.40;61.50;;;;;;5004000;28;20436;-76
2021/06/04 01:04:01;;;;;;;4.30;3.93;;;27.40;61.40;;;;;;5003968;28;20449;-77
2021/06/04 01:06:34;;;;;;;3.53;3.43;;;27.40;61.20;;;;;;5004041;28;20516;-77
2021/06/04 01:09:13;;;;;;;3.97;3.77;;;27.40;61.20;;;;;;5003973;28;20514;-76
2021/06/04 01:11:48;;;;;;;3.93;3.73;;;27.40;61.20;;;;;;5004209;28;20534;-76
2021/06/04 01:14:19;;;;;;;4.33;4.03;;;27.40;60.90;;;;;;5004321;28;20505;-76
2021/06/04 01:16:56;;;;;;;3.80;3.60;;;27.50;61.10;;;;;;5008449;28;20419;-76
2021/06/04 01:19:44;;;;;;;4.07;3.83;;;27.40;60.90;;;;;;5008058;28;20451;-76
2021/06/04 01:22:16;;;;;;;4.20;3.90;;;27.40;61.20;;;;;;5008043;28;20526;-76
2021/06/04 01:25:11;;;;;;;3.97;3.77;;;27.30;61.00;;;;;;5007769;28;20541;-76
2021/06/04 01:27:42;;;;;;;4.63;4.33;;;27.30;61.10;;;;;;5005831;28;20543;-76
2021/06/04 01:30:16;;;;;;;4.90;4.03;;;27.30;60.80;;;;;;5007859;28;20501;-76
2021/06/04 01:32:44;;;;;;;4.03;3.73;;;27.30;60.80;;;;;;4997237;28;20491;-76
2021/06/04 01:35:12;;;;;;;3.80;3.60;;;27.40;60.70;;;;;;4988047;28;20437;-76
2021/06/04 01:37:40;;;;;;;3.60;3.50;;;27.30;60.60;;;;;;4987909;28;20521;-76
2021/06/04 01:40:10;;;;;;;4.10;3.90;;;27.40;60.70;;;;;;4987834;28;20540;-77
2021/06/04 01:42:40;;;;;;;3.97;3.77;;;27.40;60.50;;;;;;4987994;28;20448;-76
2021/06/04 01:45:09;;;;;;;4.00;3.80;;;27.40;60.40;;;;;;4988193;28;20538;-77
2021/06/04 01:47:38;;;;;;;5.90;3.77;;;27.40;60.30;;;;;;4987148;28;20511;-76
2021/06/04 01:50:09;;;;;;;3.60;3.40;;;27.40;60.30;;;;;;4986743;28;20457;-76
2021/06/04 01:52:37;;;;;;;4.00;3.80;;;27.40;60.30;;;;;;4986818;28;20495;-76
2021/06/04 01:55:08;;;;;;;4.50;4.20;;;27.30;60.40;;;;;;4986428;28;20415;-77
2021/06/04 01:57:37;;;;;;;4.20;4.00;;;27.40;60.20;;;;;;4987411;28;20513;-77
2021/06/04 02:00:10;;;;;;;3.70;3.50;;;27.40;60.10;;;;;;4986999;28;20501;-76
2021/06/04 02:02:37;;;;;;;4.73;3.70;;;27.40;60.10;;;;;;4987262;28;20483;-77
2021/06/04 02:05:06;;;;;;;4.10;3.80;;;27.30;60.20;;;;;;4988289;28;20487;-77
2021/06/04 02:07:33;;;;;;;4.03;3.83;;;27.20;60.30;;;;;;4987890;28;20470;-77
2021/06/04 02:10:01;;;;;;;4.17;3.87;;;27.30;60.00;;;;;;4987691;28;20478;-77
2021/06/04 02:12:28;;;;;;;4.10;3.80;;;27.30;60.20;;;;;;4987419;28;20420;-76
2021/06/04 02:14:57;;;;;;;7.50;3.90;;;27.30;60.20;;;;;;4987616;28;20444;-77
2021/06/04 02:17:39;;;;;;;4.00;3.80;;;27.20;60.20;;;;;;4987220;28;20507;-77
2021/06/04 02:20:11;;;;;;;4.47;4.20;;;27.20;60.10;;;;;;4987113;28;20451;-77
2021/06/04 02:22:46;;;;;;;4.20;4.00;;;27.30;60.20;;;;;;4987048;28;20416;-77
2021/06/04 02:25:17;;;;;;;4.07;3.87;;;27.20;60.20;;;;;;4987137;28;20483;-76
2021/06/04 02:27:48;;;;;;;4.63;4.23;;;27.20;60.20;;;;;;4985278;28;20412;-77
2021/06/04 02:30:18;;;;;;;4.23;3.70;;;27.20;60.20;;;;;;4982513;28;20512;-77
2021/06/04 02:32:49;;;;;;;4.30;4.03;;;27.10;60.20;;;;;;4987767;28;20403;-77
2021/06/04 02:35:18;;;;;;;4.67;4.27;;;27.20;60.20;;;;;;4986941;28;20452;-77
2021/06/04 02:37:47;;;;;;;4.40;4.07;;;27.10;60.30;;;;;;5002659;28;20494;-76
2021/06/04 02:40:17;;;;;;;4.27;4.03;;;27.00;60.30;;;;;;5001274;28;20430;-76
2021/06/04 02:42:46;;;;;;;4.23;3.93;;;27.10;60.10;;;;;;5005137;28;20415;-77
2021/06/04 02:45:18;;;;;;;4.27;3.97;;;27.10;60.00;;;;;;5006214;28;20552;-76
2021/06/04 02:47:48;;;;;;;9.07;4.30;;;27.10;60.00;;;;;;5006714;28;20431;-77
2021/06/04 02:50:17;;;;;;;4.00;3.80;;;27.10;60.00;;;;;;5006523;28;20437;-77
2021/06/04 02:52:45;;;;;;;4.40;4.20;;;27.10;59.90;;;;;;5006364;28;20444;-76
2021/06/04 02:55:14;;;;;;;5.63;4.27;;;27.10;59.80;;;;;;5006095;28;20465;-76
2021/06/04 02:57:41;;;;;;;4.40;4.00;;;27.10;59.90;;;;;;5005816;28;20468;-76
2021/06/04 03:00:13;;;;;;;4.40;4.20;;;27.00;59.80;;;;;;5006171;28;20415;-76
2021/06/04 03:02:41;;;;;;;4.07;3.90;;;27.00;59.80;;;;;;5005906;28;20442;-76
2021/06/04 03:05:12;;;;;;;4.10;3.90;;;27.10;60.00;;;;;;5006136;28;20429;-76
2021/06/04 03:07:41;;;;;;;3.90;3.70;;;27.00;59.90;;;;;;5005588;28;20514;-76
2021/06/04 03:10:12;;;;;;;4.50;4.20;;;27.00;59.90;;;;;;5005782;28;20415;-77
2021/06/04 03:12:41;;;;;;;4.80;4.10;;;27.10;59.90;;;;;;5005439;28;20436;-77
2021/06/04 03:15:12;;;;;;;4.73;4.10;;;27.00;59.70;;;;;;5006195;28;20504;-76
2021/06/04 03:17:39;;;;;;;4.40;4.20;;;27.00;59.80;;;;;;5006003;28;20462;-77
2021/06/04 03:20:10;;;;;;;5.07;4.00;;;27.00;59.70;;;;;;5005807;28;20476;-76
2021/06/04 03:22:39;;;;;;;4.57;4.37;;;27.00;59.60;;;;;;5005681;28;20407;-76
2021/06/04 03:25:09;;;;;;;4.23;3.93;;;27.00;59.60;;;;;;5005966;28;20451;-76
2021/06/04 03:27:37;;;;;;;4.80;4.40;;;27.00;59.60;;;;;;5004948;28;20531;-76
2021/06/04 03:30:05;;;;;;;4.80;4.40;;;27.00;59.60;;;;;;5005650;28;20450;-76
2021/06/04 03:32:33;;;;;;;4.10;3.93;;;27.00;59.60;;;;;;5005601;28;20468;-76
2021/06/04 03:35:01;;;;;;;4.60;4.20;;;27.00;59.30;;;;;;5005368;28;20415;-76
2021/06/04 03:37:29;;;;;;;4.33;4.00;;;27.00;59.40;;;;;;5005128;28;20490;-77
2021/06/04 03:39:57;;;;;;;5.07;4.67;;;27.00;59.30;;;;;;5005127;28;20447;-76
2021/06/04 03:42:26;;;;;;;4.03;3.83;;;27.00;59.20;;;;;;5005167;28;20430;-76
2021/06/04 03:44:54;;;;;;;5.17;4.40;;;27.00;59.20;;;;;;5005411;28;20443;-76
2021/06/04 03:47:22;;;;;;;5.20;4.60;;;27.00;59.20;;;;;;5004782;28;20475;-76
2021/06/04 03:49:49;;;;;;;4.43;4.23;;;27.10;59.10;;;;;;5005159;28;20479;-76
2021/06/04 03:52:20;;;;;;;4.43;4.23;;;27.10;59.10;;;;;;5005209;28;20468;-76
2021/06/04 03:54:50;;;;;;;4.23;4.03;;;27.10;58.90;;;;;;5005257;28;20411;-77
2021/06/04 03:57:19;;;;;;;4.20;4.00;;;27.10;58.90;;;;;;5004811;28;20440;-76
2021/06/04 03:59:46;;;;;;;4.50;4.30;;;27.00;59.00;;;;;;5004667;28;20454;-76
2021/06/04 04:02:15;;;;;;;4.50;4.30;;;27.10;59.00;;;;;;4990985;28;20452;-76
2021/06/04 04:04:42;;;;;;;4.07;3.87;;;27.10;58.90;;;;;;4992622;28;20409;-76
2021/06/04 04:07:10;;;;;;;4.77;4.57;;;27.10;58.80;;;;;;4983931;28;20469;-77
2021/06/04 04:09:38;;;;;;;4.70;4.40;;;27.00;58.90;;;;;;4984671;28;20535;-77
2021/06/04 04:12:07;;;;;;;4.50;4.20;;;27.10;58.80;;;;;;4984411;28;20534;-76
2021/06/04 04:14:35;;;;;;;5.83;4.70;;;27.10;58.70;;;;;;4984999;28;20420;-76
2021/06/04 04:17:03;;;;;;;4.97;4.67;;;27.10;58.70;;;;;;4985605;28;20507;-76
2021/06/04 04:19:30;;;;;;;4.30;4.10;;;27.20;58.80;;;;;;4985248;28;20536;-76
2021/06/04 04:21:58;;;;;;;4.70;4.40;;;27.10;58.40;;;;;;4985541;28;20484;-76
2021/06/04 04:24:27;;;;;;;4.73;4.50;;;27.10;58.50;;;;;;4985275;28;20496;-76
2021/06/04 04:26:54;;;;;;;7.00;4.10;;;27.20;58.50;;;;;;4984712;28;20593;-76
2021/06/04 04:29:23;;;;;;;4.80;4.50;;;27.20;58.50;;;;;;4985309;28;20488;-76
2021/06/04 04:31:52;;;;;;;4.93;4.23;;;27.20;58.40;;;;;;4984761;28;20448;-76
2021/06/04 04:34:20;;;;;;;4.70;4.40;;;27.30;58.20;;;;;;4985356;28;20424;-76
2021/06/04 04:36:49;;;;;;;3.90;3.70;;;27.30;58.10;;;;;;4985167;28;20404;-76
2021/06/04 04:39:18;;;;;;;4.93;4.50;;;27.30;58.10;;;;;;4984253;28;20451;-76
2021/06/04 04:41:46;;;;;;;4.80;4.40;;;27.30;58.10;;;;;;4984901;28;20481;-76
2021/06/04 04:44:14;;;;;;;4.50;4.30;;;27.40;58.00;;;;;;4985091;28;20452;-76
2021/06/04 04:46:42;;;;;;;4.57;4.37;;;27.40;58.40;;;;;;4984839;28;20527;-76
2021/06/04 04:49:10;;;;;;;4.37;4.07;;;27.40;57.80;;;;;;4985437;28;20473;-76
2021/06/04 04:51:39;;;;;;;5.53;5.10;;;27.40;58.00;;;;;;4988935;28;20441;-76
2021/06/04 04:54:07;;;;;;;4.50;4.10;;;27.40;57.90;;;;;;4988826;28;20449;-76
2021/06/04 04:56:34;;;;;;;4.90;4.63;;;27.40;57.90;;;;;;4988454;28;20466;-76
2021/06/04 04:59:02;;;;;;;4.43;4.03;;;27.40;58.00;;;;;;4988475;28;20444;-76
2021/06/04 05:01:30;;;;;;;4.30;4.10;;;27.40;58.00;;;;;;4988873;28;20455;-76
2021/06/04 05:03:58;;;;;;;5.03;4.70;;;27.40;57.90;;;;;;4988351;28;20437;-76
2021/06/04 05:06:26;;;;;;;5.13;4.73;;;27.50;57.80;;;;;;4988113;28;20476;-77
2021/06/04 05:08:53;;;;;;;4.90;4.60;;;27.40;57.80;;;;;;4988174;28;20433;-76
2021/06/04 05:11:21;;;;;;;4.57;4.37;;;27.50;57.80;;;;;;4988923;28;20532;-76
2021/06/04 05:13:48;;;;;;;4.30;4.10;;;27.50;57.70;;;;;;4988620;28;20445;-76
2021/06/04 05:16:16;;;;;;;4.37;4.17;;;27.50;57.60;;;;;;4988407;28;20523;-76
2021/06/04 05:18:44;;;;;;;4.80;4.50;;;27.50;57.70;;;;;;4988046;28;20437;-76
2021/06/04 05:21:14;;;;;;;4.93;4.63;;;27.50;57.60;;;;;;4988267;28;20478;-76
2021/06/04 05:23:41;;;;;;;4.87;4.60;;;27.50;57.60;;;;;;4988132;28;20517;-76
2021/06/04 05:26:09;;;;;;;3.97;3.83;;;27.60;57.60;;;;;;4988323;28;20458;-76
2021/06/04 05:28:38;;;;;;;4.63;4.23;;;27.50;57.60;;;;;;4988223;28;20435;-76
2021/06/04 05:31:07;;;;;;;4.43;4.20;;;27.60;57.70;;;;;;4988561;28;20468;-76
2021/06/04 05:33:36;;;;;;;4.50;4.20;;;27.60;57.40;;;;;;4988337;28;20411;-76
2021/06/04 05:36:04;;;;;;;5.83;5.33;;;27.60;57.40;;;;;;4988575;28;20427;-76
2021/06/04 05:38:33;;;;;;;5.27;4.97;;;27.70;57.50;;;;;;4988133;28;20420;-76
2021/06/04 05:41:01;;;;;;;4.40;4.20;;;27.70;57.40;;;;;;4988178;28;20448;-76
2021/06/04 05:43:30;;;;;;;4.23;4.07;;;27.70;57.30;;;;;;4987883;28;20444;-76
2021/06/04 05:45:58;;;;;;;4.10;3.90;;;27.80;57.40;;;;;;4987787;28;20424;-76
2021/06/04 05:48:26;;;;;;;4.73;4.53;;;27.80;57.40;;;;;;4987479;28;20448;-76
2021/06/04 05:50:56;;;;;;;4.10;4.00;;;27.80;57.30;;;;;;4987716;28;20459;-76
2021/06/04 05:53:26;;;;;;;5.13;4.60;;;27.70;57.40;;;;;;4987666;28;20508;-76
2021/06/04 05:55:55;;;;;;;5.23;4.93;;;27.80;57.40;;;;;;4987624;28;20434;-76
2021/06/04 05:58:23;;;;;;;5.13;4.83;;;27.90;57.20;;;;;;4987208;28;20432;-76
2021/06/04 06:00:51;;;;;;;5.00;4.70;;;27.80;57.20;;;;;;4987179;28;20436;-76
2021/06/04 06:03:21;;;;;;;6.80;4.77;;;27.80;57.20;;;;;;4987734;28;20447;-76
2021/06/04 06:05:49;;;;;;;4.60;4.40;;;27.90;57.20;;;;;;4987928;28;20461;-76
2021/06/04 06:08:17;;;;;;;5.50;5.10;;;27.90;57.00;;;;;;4987163;28;20544;-76
2021/06/04 06:10:44;;;;;;;4.90;4.63;;;27.90;57.10;;;;;;4987562;28;20458;-76
2021/06/04 06:13:13;;;;;;;5.10;4.80;;;27.90;57.20;;;;;;4986962;28;20465;-76
2021/06/04 06:15:59;;;;;;;5.13;4.73;;;27.90;57.00;;;;;;4987816;28;20464;-76
2021/06/04 06:18:27;;;;;;;5.63;5.23;;;28.00;57.10;;;;;;4987435;28;20427;-76
2021/06/04 06:20:54;;;;;;;4.70;4.40;;;27.90;57.10;;;;;;4987359;28;20412;-76
2021/06/04 06:23:25;;;;;;;5.00;4.70;;;27.90;57.10;;;;;;4987414;28;20494;-76
2021/06/04 06:25:55;;;;;;;5.77;4.60;;;27.90;57.20;;;;;;4987091;28;20445;-76
2021/06/04 06:28:26;;;;;;;4.60;4.30;;;28.10;56.90;;;;;;4987147;28;20481;-75
2021/06/04 06:30:54;;;;;;;4.77;4.47;;;28.10;56.80;;;;;;4987387;28;20499;-75
2021/06/04 06:33:22;;;;;;;5.00;4.70;;;28.10;56.70;;;;;;4987482;28;20442;-75
2021/06/04 06:35:51;;;;;;;4.80;4.40;;;28.10;56.80;;;;;;4987721;28;20486;-75
2021/06/04 06:38:19;;;;;;;5.37;4.97;;;28.10;56.80;;;;;;4987166;28;20507;-75
2021/06/04 06:40:46;;;;;;;5.80;4.57;;;28.10;56.80;;;;;;4987056;28;20465;-75
2021/06/04 06:43:16;;;;;;;5.23;4.93;;;28.00;57.10;;;;;;4987171;28;20449;-75
2021/06/04 06:45:47;;;;;;;4.97;4.67;;;28.00;57.30;;;;;;4987382;28;20594;-76
2021/06/04 06:48:15;;;;;;;5.73;5.13;;;28.00;57.20;;;;;;4986159;28;20480;-75
2021/06/04 06:50:43;;;;;;;5.23;4.70;;;28.10;57.20;;;;;;4986966;28;20480;-75
2021/06/04 06:53:11;;;;;;;6.50;5.07;;;28.10;57.00;;;;;;4986458;28;20428;-75
2021/06/04 06:55:39;;;;;;;5.80;5.17;;;28.10;57.00;;;;;;4987007;28;20536;-75
2021/06/04 06:58:07;;;;;;;5.40;5.00;;;28.10;57.10;;;;;;4986618;28;20441;-75
2021/06/04 07:00:36;;;;;;;5.00;4.63;;;28.10;57.20;;;;;;4987249;28;20534;-76
2021/06/04 07:03:05;;;;;;;9.10;5.20;;;28.00;57.20;;;;;;4994659;28;20464;-75
2021/06/04 07:05:33;;;;;;;5.07;4.67;;;28.00;57.50;;;;;;4997905;28;20444;-75
2021/06/04 07:08:01;;;;;;;5.00;4.70;;;28.00;57.20;;;;;;5006731;28;20507;-75
2021/06/04 07:10:29;;;;;;;5.00;4.60;;;28.10;57.00;;;;;;5006102;28;20436;-76
2021/06/04 07:12:57;;;;;;;5.53;5.10;;;28.00;57.40;;;;;;5003963;28;20443;-76
2021/06/04 07:15:26;;;;;;;5.33;4.93;;;28.10;57.30;;;;;;5000786;28;20423;-76
2021/06/04 07:17:54;;;;;;;5.03;4.53;;;28.00;57.40;;;;;;5006549;28;20536;-75
2021/06/04 07:20:23;;;;;;;5.13;4.60;;;28.20;57.00;;;;;;5006591;28;20407;-76
2021/06/04 07:22:51;;;;;;;5.13;4.73;;;28.30;56.80;;;;;;5002562;28;20460;-76
2021/06/04 07:25:20;;;;;;;5.23;4.73;;;28.30;56.70;;;;;;4997156;28;20426;-76
2021/06/04 07:27:48;;;;;;;5.57;4.60;;;28.30;56.70;;;;;;4995739;28;20563;-75
2021/06/04 07:30:16;;;;;;;4.80;4.40;;;28.30;56.80;;;;;;4997553;28;20500;-75
2021/06/04 07:32:43;;;;;;;5.40;4.90;;;28.30;56.80;;;;;;5005866;28;20427;-75
2021/06/04 07:35:12;;;;;;;5.17;4.77;;;28.40;56.60;;;;;;5006511;28;20483;-75
2021/06/04 07:37:41;;;;;;;5.23;4.83;;;28.40;56.50;;;;;;5005925;28;20468;-75
2021/06/04 07:40:16;;;;;;;4.90;4.53;;;28.50;56.60;;;;;;4988989;28;20451;-75
2021/06/04 07:42:44;;;;;;;6.13;5.23;;;28.50;56.30;;;;;;4978551;28;20529;-75
2021/06/04 07:45:11;;;;;;;4.80;4.50;;;28.50;56.70;;;;;;4991349;28;20496;-75
2021/06/04 07:47:41;;;;;;;5.40;4.90;;;28.50;56.30;;;;;;4985488;28;20555;-75
2021/06/04 07:50:10;;;;;;;5.27;4.77;;;28.60;56.20;;;;;;4986678;28;20424;-75
2021/06/04 07:52:37;;;;;;;4.87;4.47;;;28.40;56.30;;;;;;4986430;28;20511;-75
2021/06/04 07:55:08;;;;;;;4.53;4.23;;;28.50;56.10;;;;;;4985868;28;20445;-75
2021/06/04 07:57:36;;;;;;;5.33;4.77;;;28.50;56.20;;;;;;4985790;28;20451;-75
2021/06/04 08:00:04;;;;;;;4.63;4.33;;;28.60;56.10;;;;;;4985778;28;20547;-75
2021/06/04 08:02:32;;;;;;;5.27;4.77;;;28.70;56.00;;;;;;4985302;28;20508;-75
2021/06/04 08:05:00;;;;;;;5.23;4.83;;;28.70;55.80;;;;;;4985644;28;20429;-75
2021/06/04 08:07:27;;;;;;;4.57;4.27;;;28.90;55.30;;;;;;4990539;28;20478;-75
2021/06/04 08:09:55;;;;;;;4.53;4.23;;;28.90;55.40;;;;;;5004928;28;20468;-75
2021/06/04 08:12:30;;;;;;;5.13;4.63;;;29.10;55.20;;;;;;5005458;28;20491;-83
2021/06/04 08:14:59;;;;;;;4.60;4.40;;;29.20;55.30;;;;;;5005575;28;20422;-75
2021/06/04 08:17:27;;;;;;;4.83;4.53;;;29.20;55.10;;;;;;5005383;28;20486;-79
2021/06/04 08:19:54;;;;;;;5.33;4.50;;;29.10;55.30;;;;;;5005280;28;20471;-79
2021/06/04 08:22:22;;;;;;;4.53;4.20;;;29.10;55.30;;;;;;5004805;28;20534;-75
2021/06/04 08:24:49;;;;;;;5.20;4.70;;;29.20;55.40;;;;;;5004995;28;20468;-82
2021/06/04 08:27:19;;;;;;;4.60;4.20;;;29.10;55.50;;;;;;5004805;28;20475;-82
2021/06/04 08:29:48;;;;;;;6.17;4.83;;;29.10;55.70;;;;;;5005076;28;20436;-82
2021/06/04 08:32:16;;;;;;;5.30;4.90;;;29.10;55.60;;;;;;5004745;28;20482;-82
2021/06/04 08:34:44;;;;;;;4.60;4.20;;;29.10;55.90;;;;;;4999006;28;20452;-82
2021/06/04 08:37:11;;;;;;;4.73;4.33;;;29.10;56.10;;;;;;4985487;28;20455;-82
2021/06/04 08:39:41;;;;;;;5.63;4.73;;;29.20;55.90;;;;;;4988194;28;20457;-84
2021/06/04 08:42:21;;;;;;;4.67;4.37;;;29.40;55.30;;;;;;4996468;28;20440;-83
2021/06/04 08:44:54;;;;;;;5.07;4.77;;;29.50;55.10;;;;;;4993012;28;20452;-84
2021/06/04 08:47:22;;;;;;;4.87;4.47;;;29.50;54.70;;;;;;4987694;28;20476;-85
2021/06/04 08:50:10;;;;;;;4.53;4.23;;;29.60;54.50;;;;;;4991975;28;20411;-85
2021/06/04 08:52:40;;;;;;;5.03;4.50;;;29.60;54.60;;;;;;4994702;28;20519;-84
2021/06/04 08:55:14;;;;;;;4.10;3.90;;;29.70;54.50;;;;;;4995068;28;20503;-84
2021/06/04 08:57:47;;;;;;;4.93;4.53;;;29.60;54.50;;;;;;4992276;28;20440;-84
2021/06/04 09:00:17;;;;;;;5.43;4.57;;;29.70;54.40;;;;;;4994137;28;20495;-88
2021/06/04 09:02:46;;;;;;;5.23;4.80;;;29.80;54.20;;;;;;4988760;28;20416;-86
2021/06/04 09:05:15;;;;;;;5.60;4.40;;;29.80;54.10;;;;;;4987936;28;20531;-87
2021/06/04 09:07:45;;;;;;;6.40;4.60;;;29.80;54.30;;;;;;4984865;28;20560;-85
2021/06/04 09:10:17;;;;;;;8.87;4.23;;;29.80;54.30;;;;;;4984930;28;20527;-86
2021/06/04 09:12:47;;;;;;;3.93;3.73;;;29.80;54.30;;;;;;4984909;28;20443;-86
2021/06/04 09:15:17;;;;;;;4.13;3.90;;;30.00;54.20;;;;;;4985331;28;20404;-87
2021/06/04 09:17:50;;;;;;;4.80;4.40;;;30.00;54.10;;;;;;4985279;28;20431;-85
2021/06/04 09:20:25;;;;;;;4.53;4.27;;;30.20;54.00;;;;;;4985439;28;20441;-85
2021/06/04 09:22:54;;;;;;;4.80;4.40;;;30.30;53.60;;;;;;4985304;28;20435;-85
2021/06/04 09:25:23;;;;;;;4.43;4.13;;;30.40;53.60;;;;;;4984984;28;20420;-86
2021/06/04 09:27:52;;;;;;;4.97;4.57;;;30.30;53.50;;;;;;4984546;28;20530;-84
2021/06/04 09:30:35;;;;;;;4.33;4.13;;;30.30;53.50;;;;;;4985386;28;20412;-88
2021/06/04 09:33:08;;;;;;;4.53;4.23;;;30.40;53.40;;;;;;4985091;28;20506;-86
2021/06/04 09:35:37;;;;;;;4.50;4.20;;;30.50;53.10;;;;;;4985675;28;20528;-85
2021/06/04 09:38:16;;;;;;;4.67;4.27;;;30.40;53.10;;;;;;4988749;28;20496;-87
2021/06/04 09:40:43;;;;;;;4.50;4.20;;;30.30;53.30;;;;;;4988796;28;20477;-88
2021/06/04 09:43:19;;;;;;;6.23;4.13;;;30.30;53.30;;;;;;4988246;28;20551;-85
2021/06/04 09:45:55;;;;;;;4.90;4.00;;;30.20;53.60;;;;;;4988989;28;20446;-86
2021/06/04 09:48:40;;;;;;;4.90;4.53;;;30.40;53.40;;;;;;4988343;28;20558;-87
2021/06/04 09:51:14;;;;;;;4.30;4.00;;;30.30;53.20;;;;;;4988403;28;20453;-87
2021/06/04 09:53:41;;;;;;;3.83;3.63;;;30.20;53.40;;;;;;4988334;28;20403;-88
2021/06/04 09:56:16;;;;;;;4.50;4.20;;;30.20;53.40;;;;;;4988426;28;20531;-88
2021/06/04 09:58:50;;;;;;;4.10;3.90;;;30.40;53.80;;;;;;4988208;28;20440;-87
2021/06/04 10:01:20;;;;;;;4.37;4.17;;;30.50;53.30;;;;;;4988391;28;20449;-88
2021/06/04 10:03:59;;;;;;;4.30;4.10;;;30.50;53.20;;;;;;4988026;28;20504;-88
2021/06/04 10:06:40;;;;;;;4.50;4.20;;;30.50;53.20;;;;;;4986958;28;20456;-86
2021/06/04 10:09:23;;;;;;;4.50;4.13;;;30.50;53.50;;;;;;4987552;28;20568;-88
2021/06/04 10:11:56;;;;;;;4.60;4.30;;;30.50;53.40;;;;;;4987537;28;20532;-88
2021/06/04 10:14:30;;;;;;;4.50;4.30;;;30.50;53.30;;;;;;4987751;28;20438;-87
2021/06/04 10:17:02;;;;;;;4.40;4.10;;;30.50;53.40;;;;;;4988000;28;20422;-86
2021/06/04 10:19:35;;;;;;;4.50;4.20;;;30.50;53.70;;;;;;4987785;28;20469;-86
2021/06/04 10:22:16;;;;;;;5.00;4.60;;;30.60;53.50;;;;;;4987209;28;20436;-88
2021/06/04 10:24:44;;;;;;;4.37;4.10;;;30.70;53.30;;;;;;4988244;28;20492;-85
2021/06/04 10:27:13;;;;;;;4.60;4.30;;;30.60;53.10;;;;;;4987363;28;20433;-87
2021/06/04 10:29:41;;;;;;;4.23;3.93;;;30.60;53.40;;;;;;4986531;28;20560;-79
2021/06/04 10:32:11;;;;;;;6.80;5.90;;;30.70;53.40;;;;;;4981059;28;20476;-84
2021/06/04 10:34:52;;;;;;;7.57;6.87;;;29.10;56.80;;;;;;4985506;28;20472;-85
2021/06/04 10:37:21;;;;;;;7.50;6.87;;;28.60;58.70;;;;;;4980806;28;20537;-85
2021/06/04 10:39:50;;;;;;;10.80;7.50;;;28.50;59.70;;;;;;4976232;28;20447;-85
2021/06/04 10:42:23;;;;;;;7.67;6.93;;;28.60;60.20;;;;;;4986836;28;20437;-85
2021/06/04 10:44:56;;;;;;;8.10;7.30;;;28.30;60.20;;;;;;4986323;28;20472;-85
2021/06/04 10:47:29;;;;;;;13.63;8.07;;;28.10;60.90;;;;;;4986022;28;20499;-84
2021/06/04 10:50:10;;;;;;;7.53;6.83;;;28.20;61.60;;;;;;4986804;28;20434;-83
2021/06/04 10:52:48;;;;;;;8.40;7.70;;;28.40;62.20;;;;;;4976826;28;20430;-85
2021/06/04 10:55:17;;;;;;;9.00;8.10;;;28.60;60.90;;;;;;4977404;28;20442;-83
2021/06/04 10:57:47;;;;;;;7.10;6.50;;;28.70;60.50;;;;;;4974732;28;20516;-85
2021/06/04 11:00:17;;;;;;;8.60;7.80;;;28.80;61.10;;;;;;4976091;28;20476;-87
2021/06/04 11:02:48;;;;;;;8.17;7.43;;;28.90;60.80;;;;;;4977277;28;20493;-86
2021/06/04 11:05:26;;;;;;;11.03;9.90;;;28.80;60.70;;;;;;4973218;28;20431;-85
2021/06/04 11:07:58;;;;;;;10.10;9.00;;;28.80;61.40;;;;;;4971979;28;20450;-85
2021/06/04 11:10:28;;;;;;;10.37;8.27;;;28.80;60.50;;;;;;4983052;28;20481;-83
2021/06/04 11:13:04;;;;;;;10.27;9.27;;;29.00;60.80;;;;;;4979801;28;20419;-87
2021/06/04 11:15:41;;;;;;;9.60;8.53;;;29.00;60.60;;;;;;4976723;28;20441;-84
2021/06/04 11:18:14;;;;;;;10.63;9.57;;;29.10;60.40;;;;;;4973003;28;20438;-86
2021/06/04 11:20:45;;;;;;;11.00;9.90;;;29.40;59.60;;;;;;4974761;28;20488;-85
2021/06/04 11:23:14;;;;;;;11.07;9.97;;;29.70;58.70;;;;;;4975930;28;20430;-86
2021/06/04 11:25:52;;;;;;;11.43;10.23;;;29.70;57.40;;;;;;4976117;28;20433;-87
2021/06/04 11:28:26;;;;;;;10.03;9.00;;;29.90;56.70;;;;;;4974299;28;20496;-87
2021/06/04 11:30:54;;;;;;;10.30;9.33;;;30.10;56.80;;;;;;4973762;28;20523;-86
2021/06/04 11:33:24;;;;;;;11.73;9.53;;;29.70;57.50;;;;;;4982868;28;20491;-88
2021/06/04 11:35:53;;;;;;;11.83;10.73;;;29.10;58.60;;;;;;5004994;28;20461;-88
2021/06/04 11:38:26;;;;;;;12.57;9.83;;;29.60;58.30;;;;;;5004857;28;20468;-87
2021/06/04 11:40:57;;;;;;;11.37;9.80;;;30.00;57.20;;;;;;5005243;28;20465;-87
2021/06/04 11:43:26;;;;;;;12.77;9.77;;;30.30;56.40;;;;;;5005356;28;20425;-88
2021/06/04 11:46:14;;;;;;;10.53;9.63;;;30.50;55.90;;;;;;5005141;28;20534;-87
2021/06/04 11:48:54;;;;;;;12.60;11.40;;;30.70;55.40;;;;;;5004943;28;20563;-88
2021/06/04 11:51:33;;;;;;;12.17;10.83;;;30.40;55.50;;;;;;5005028;28;20471;-80
2021/06/04 11:54:38;;;;;;;10.73;9.73;;;30.60;55.60;;;;;;5004648;28;20416;-81
2021/06/04 11:57:42;;;;;;;11.37;10.27;;;29.90;56.90;;;;;;5004765;28;20468;-82
2021/06/04 12:00:44;;;;;;;10.50;9.43;;;30.20;56.30;;;;;;5004002;28;20532;-79
2021/06/04 12:03:28;;;;;;;12.40;9.67;;;30.60;55.80;;;;;;4943687;29;20438;-82
2021/06/04 12:05:56;;;;;;;11.00;10.00;;;30.70;55.30;;;;;;4943799;29;20451;-80
2021/06/04 12:08:44;;;;;;;11.50;10.30;;;30.60;55.40;;;;;;4975367;28;20461;-79
2021/06/04 12:11:32;;;;;;;10.33;9.43;;;30.80;55.50;;;;;;4984708;28;20579;-79
2021/06/04 12:14:28;;;;;;;10.70;9.80;;;30.70;55.60;;;;;;4985089;28;20437;-81
2021/06/04 12:17:25;;;;;;;11.70;9.60;;;30.80;55.80;;;;;;4984844;28;20430;-82
2021/06/04 12:20:22;;;;;;;11.77;10.57;;;30.80;55.80;;;;;;4984419;28;20434;-79
2021/06/04 12:22:50;;;;;;;10.07;9.13;;;30.70;55.60;;;;;;4983798;28;20463;-78
2021/06/04 12:25:42;;;;;;;10.30;9.27;;;30.80;55.40;;;;;;4984306;28;20461;-76
2021/06/04 12:28:10;;;;;;;10.10;9.20;;;30.80;55.30;;;;;;4984423;28;20445;-76
2021/06/04 12:31:04;;;;;;;10.83;9.77;;;30.80;54.90;;;;;;4984881;28;20453;-78
2021/06/04 12:33:47;;;;;;;10.67;9.67;;;30.80;54.80;;;;;;4984367;28;20465;-78
2021/06/04 12:36:54;;;;;;;13.87;9.80;;;30.80;54.80;;;;;;4984465;28;20433;-78
2021/06/04 12:39:43;;;;;;;12.13;10.90;;;30.80;54.80;;;;;;4984251;28;20525;-79
2021/06/04 12:42:27;;;;;;;12.80;9.80;;;30.80;54.30;;;;;;4984274;28;20471;-77
2021/06/04 12:44:57;;;;;;;12.07;10.30;;;30.80;54.10;;;;;;4982264;28;20457;-78
2021/06/04 12:47:28;;;;;;;9.87;8.97;;;30.70;53.60;;;;;;4984264;28;20429;-78
2021/06/04 12:50:09;;;;;;;9.93;8.93;;;30.80;54.20;;;;;;4983593;28;20477;-78
2021/06/04 12:52:36;;;;;;;14.93;10.10;;;30.80;54.20;;;;;;4986666;28;20440;-78
2021/06/04 12:55:18;;;;;;;10.13;9.17;;;30.80;54.20;;;;;;4986146;28;20527;-78
2021/06/04 12:57:45;;;;;;;10.10;9.20;;;30.80;54.20;;;;;;4995298;28;20515;-77
2021/06/04 13:00:23;;;;;;;10.90;9.40;;;30.70;53.70;;;;;;5003573;28;20498;-77
2021/06/04 13:02:55;;;;;;;9.50;8.50;;;30.70;53.50;;;;;;5003609;28;20442;-77
2021/06/04 13:05:25;;;;;;;8.47;7.73;;;30.80;53.70;;;;;;5004219;28;20449;-76
2021/06/04 13:07:53;;;;;;;8.80;7.90;;;30.70;53.50;;;;;;5003996;28;20456;-76